sensor_id;sensor_type;location;lat;lon;timestamp;P1;durP1;ratioP1;P2;durP2;ratioP2
68365;SDS011;55283;51.466;5.478;2023-01-19T00:00:13;1.93;;;1.73;;
68365;SDS011;55283;51.466;5.478;2023-01-19T00:02:39;1.80;;;1.50;;
68365;SDS011;55283;51.466;5.478;2023-01-19T00:05:06;2.47;;;1.70;;
68365;SDS011;55283;51.466;5.478;2023-01-19T00:07:31;1.77;;;1.57;;
68365;SDS011;55283;51.466;5.478;2023-01-19T00:09:57;3.27;;;1.80;;
68365;SDS011;55283;51.466;5.478;2023-01-19T00:12:22;1.60;;;1.50;;
68365;SDS011;55283;51.466;5.478;2023-01-19T00:14:48;1.70;;;1.60;;
68365;SDS011;55283;51.466;5.478;2023-01-19T00:17:13;2.27;;;1.50;;
68365;SDS011;55283;51.466;5.478;2023-01-19T00:19:38;2.33;;;1.50;;
68365;SDS011;55283;51.466;5.478;2023-01-19T00:22:04;1.90;;;1.70;;
68365;SDS011;55283;51.466;5.478;2023-01-19T00:24:30;1.80;;;1.63;;
68365;SDS011;55283;51.466;5.478;2023-01-19T00:26:56;1.85;;;1.40;;
68365;SDS011;55283;51.466;5.478;2023-01-19T00:29:21;1.50;;;1.40;;
68365;SDS011;55283;51.466;5.478;2023-01-19T00:31:48;1.67;;;1.42;;
68365;SDS011;55283;51.466;5.478;2023-01-19T00:34:13;1.50;;;1.40;;
68365;SDS011;55283;51.466;5.478;2023-01-19T00:36:39;2.23;;;1.73;;
68365;SDS011;55283;51.466;5.478;2023-01-19T00:39:04;1.70;;;1.60;;
68365;SDS011;55283;51.466;5.478;2023-01-19T00:41:29;1.53;;;1.43;;
68365;SDS011;55283;51.466;5.478;2023-01-19T00:44:13;2.47;;;1.73;;
68365;SDS011;55283;51.466;5.478;2023-01-19T00:46:39;2.43;;;1.70;;
68365;SDS011;55283;51.466;5.478;2023-01-19T00:49:04;1.70;;;1.50;;
68365;SDS011;55283;51.466;5.478;2023-01-19T00:51:30;2.33;;;1.40;;
68365;SDS011;55283;51.466;5.478;2023-01-19T00:53:55;2.17;;;1.50;;
68365;SDS011;55283;51.466;5.478;2023-01-19T00:56:21;1.57;;;1.40;;
68365;SDS011;55283;51.466;5.478;2023-01-19T00:58:46;1.73;;;1.60;;
68365;SDS011;55283;51.466;5.478;2023-01-19T01:01:12;2.00;;;1.50;;
68365;SDS011;55283;51.466;5.478;2023-01-19T01:03:37;1.53;;;1.43;;
68365;SDS011;55283;51.466;5.478;2023-01-19T01:06:03;1.67;;;1.57;;
68365;SDS011;55283;51.466;5.478;2023-01-19T01:08:32;1.60;;;1.38;;
68365;SDS011;55283;51.466;5.478;2023-01-19T01:10:58;1.80;;;1.60;;
68365;SDS011;55283;51.466;5.478;2023-01-19T01:13:23;1.53;;;1.43;;
68365;SDS011;55283;51.466;5.478;2023-01-19T01:15:49;1.60;;;1.40;;
68365;SDS011;55283;51.466;5.478;2023-01-19T01:18:16;2.00;;;1.60;;
68365;SDS011;55283;51.466;5.478;2023-01-19T01:20:41;1.80;;;1.50;;
68365;SDS011;55283;51.466;5.478;2023-01-19T01:23:06;1.60;;;1.50;;
68365;SDS011;55283;51.466;5.478;2023-01-19T01:25:32;2.40;;;1.60;;
68365;SDS011;55283;51.466;5.478;2023-01-19T01:28:01;2.10;;;1.70;;
68365;SDS011;55283;51.466;5.478;2023-01-19T01:30:27;1.83;;;1.70;;
68365;SDS011;55283;51.466;5.478;2023-01-19T01:32:52;1.95;;;1.50;;
68365;SDS011;55283;51.466;5.478;2023-01-19T01:35:17;1.70;;;1.60;;
68365;SDS011;55283;51.466;5.478;2023-01-19T01:37:43;1.60;;;1.50;;
68365;SDS011;55283;51.466;5.478;2023-01-19T01:40:10;1.63;;;1.48;;
68365;SDS011;55283;51.466;5.478;2023-01-19T01:42:37;2.00;;;1.70;;
68365;SDS011;55283;51.466;5.478;2023-01-19T01:45:06;1.77;;;1.42;;
68365;SDS011;55283;51.466;5.478;2023-01-19T01:47:49;1.85;;;1.55;;
68365;SDS011;55283;51.466;5.478;2023-01-19T01:50:17;1.70;;;1.40;;
68365;SDS011;55283;51.466;5.478;2023-01-19T01:52:48;1.50;;;1.40;;
68365;SDS011;55283;51.466;5.478;2023-01-19T01:55:22;1.98;;;1.70;;
68365;SDS011;55283;51.466;5.478;2023-01-19T01:57:51;1.70;;;1.60;;
68365;SDS011;55283;51.466;5.478;2023-01-19T02:00:22;1.63;;;1.50;;
68365;SDS011;55283;51.466;5.478;2023-01-19T02:02:48;1.52;;;1.40;;
68365;SDS011;55283;51.466;5.478;2023-01-19T02:10:28;1.85;;;1.50;;
68365;SDS011;55283;51.466;5.478;2023-01-19T02:13:12;1.93;;;1.60;;
68365;SDS011;55283;51.466;5.478;2023-01-19T02:15:54;1.50;;;1.40;;
68365;SDS011;55283;51.466;5.478;2023-01-19T02:18:23;1.98;;;1.55;;
68365;SDS011;55283;51.466;5.478;2023-01-19T02:21:10;1.50;;;1.40;;
68365;SDS011;55283;51.466;5.478;2023-01-19T02:23:59;2.28;;;1.73;;
68365;SDS011;55283;51.466;5.478;2023-01-19T02:26:28;1.55;;;1.40;;
68365;SDS011;55283;51.466;5.478;2023-01-19T02:29:04;2.20;;;1.47;;
68365;SDS011;55283;51.466;5.478;2023-01-19T02:31:32;1.50;;;1.40;;
68365;SDS011;55283;51.466;5.478;2023-01-19T02:34:00;1.85;;;1.33;;
68365;SDS011;55283;51.466;5.478;2023-01-19T02:36:28;1.75;;;1.50;;
68365;SDS011;55283;51.466;5.478;2023-01-19T02:38:59;1.90;;;1.73;;
68365;SDS011;55283;51.466;5.478;2023-01-19T02:41:27;1.30;;;1.20;;
68365;SDS011;55283;51.466;5.478;2023-01-19T02:43:56;2.33;;;1.60;;
68365;SDS011;55283;51.466;5.478;2023-01-19T02:46:23;1.50;;;1.37;;
68365;SDS011;55283;51.466;5.478;2023-01-19T02:48:49;1.48;;;1.38;;
68365;SDS011;55283;51.466;5.478;2023-01-19T02:51:24;1.37;;;1.27;;
68365;SDS011;55283;51.466;5.478;2023-01-19T02:56:40;1.67;;;1.58;;
68365;SDS011;55283;51.466;5.478;2023-01-19T02:59:16;1.70;;;1.60;;
68365;SDS011;55283;51.466;5.478;2023-01-19T03:10:44;1.70;;;1.30;;
68365;SDS011;55283;51.466;5.478;2023-01-19T03:18:42;1.50;;;1.40;;
68365;SDS011;55283;51.466;5.478;2023-01-19T03:21:11;1.60;;;1.50;;
68365;SDS011;55283;51.466;5.478;2023-01-19T03:23:40;1.75;;;1.42;;
68365;SDS011;55283;51.466;5.478;2023-01-19T03:26:09;1.73;;;1.43;;
68365;SDS011;55283;51.466;5.478;2023-01-19T03:28:41;1.50;;;1.38;;
68365;SDS011;55283;51.466;5.478;2023-01-19T03:31:11;1.63;;;1.40;;
68365;SDS011;55283;51.466;5.478;2023-01-19T03:33:41;1.90;;;1.70;;
68365;SDS011;55283;51.466;5.478;2023-01-19T03:36:13;2.03;;;1.50;;
68365;SDS011;55283;51.466;5.478;2023-01-19T03:38:42;1.60;;;1.50;;
68365;SDS011;55283;51.466;5.478;2023-01-19T03:41:12;1.60;;;1.50;;
68365;SDS011;55283;51.466;5.478;2023-01-19T03:43:41;1.70;;;1.40;;
68365;SDS011;55283;51.466;5.478;2023-01-19T03:46:08;1.70;;;1.60;;
68365;SDS011;55283;51.466;5.478;2023-01-19T03:48:35;1.73;;;1.50;;
68365;SDS011;55283;51.466;5.478;2023-01-19T03:51:03;1.47;;;1.37;;
68365;SDS011;55283;51.466;5.478;2023-01-19T03:53:31;1.52;;;1.40;;
68365;SDS011;55283;51.466;5.478;2023-01-19T03:55:56;1.40;;;1.30;;
68365;SDS011;55283;51.466;5.478;2023-01-19T03:58:22;1.67;;;1.50;;
68365;SDS011;55283;51.466;5.478;2023-01-19T04:00:47;1.63;;;1.48;;
68365;SDS011;55283;51.466;5.478;2023-01-19T04:03:13;1.40;;;1.30;;
68365;SDS011;55283;51.466;5.478;2023-01-19T04:05:40;1.50;;;1.40;;
68365;SDS011;55283;51.466;5.478;2023-01-19T04:08:06;1.70;;;1.48;;
68365;SDS011;55283;51.466;5.478;2023-01-19T04:10:32;1.65;;;1.40;;
68365;SDS011;55283;51.466;5.478;2023-01-19T04:12:57;1.50;;;1.33;;
68365;SDS011;55283;51.466;5.478;2023-01-19T04:15:24;1.40;;;1.30;;
68365;SDS011;55283;51.466;5.478;2023-01-19T04:17:50;1.50;;;1.40;;
68365;SDS011;55283;51.466;5.478;2023-01-19T04:20:15;1.65;;;1.40;;
68365;SDS011;55283;51.466;5.478;2023-01-19T04:22:40;1.50;;;1.40;;
68365;SDS011;55283;51.466;5.478;2023-01-19T04:25:06;1.60;;;1.50;;
68365;SDS011;55283;51.466;5.478;2023-01-19T04:27:33;1.40;;;1.30;;
68365;SDS011;55283;51.466;5.478;2023-01-19T04:29:59;1.50;;;1.40;;
68365;SDS011;55283;51.466;5.478;2023-01-19T04:32:24;1.40;;;1.30;;
68365;SDS011;55283;51.466;5.478;2023-01-19T04:34:50;1.50;;;1.40;;
68365;SDS011;55283;51.466;5.478;2023-01-19T04:37:15;1.60;;;1.50;;
68365;SDS011;55283;51.466;5.478;2023-01-19T04:39:41;1.33;;;1.20;;
68365;SDS011;55283;51.466;5.478;2023-01-19T04:42:07;1.50;;;1.40;;
68365;SDS011;55283;51.466;5.478;2023-01-19T04:44:33;1.53;;;1.37;;
68365;SDS011;55283;51.466;5.478;2023-01-19T04:46:58;1.50;;;1.30;;
68365;SDS011;55283;51.466;5.478;2023-01-19T04:49:24;1.60;;;1.47;;
68365;SDS011;55283;51.466;5.478;2023-01-19T04:51:51;1.40;;;1.20;;
68365;SDS011;55283;51.466;5.478;2023-01-19T04:54:17;1.45;;;1.20;;
68365;SDS011;55283;51.466;5.478;2023-01-19T04:56:43;1.63;;;1.53;;
68365;SDS011;55283;51.466;5.478;2023-01-19T04:59:08;1.43;;;1.33;;
68365;SDS011;55283;51.466;5.478;2023-01-19T05:01:33;1.30;;;1.20;;
68365;SDS011;55283;51.466;5.478;2023-01-19T05:03:59;1.40;;;1.23;;
68365;SDS011;55283;51.466;5.478;2023-01-19T05:06:24;1.30;;;1.20;;
68365;SDS011;55283;51.466;5.478;2023-01-19T05:08:50;1.47;;;1.23;;
68365;SDS011;55283;51.466;5.478;2023-01-19T05:11:15;1.40;;;1.30;;
68365;SDS011;55283;51.466;5.478;2023-01-19T05:13:41;1.30;;;1.20;;
68365;SDS011;55283;51.466;5.478;2023-01-19T05:16:06;1.53;;;1.20;;
68365;SDS011;55283;51.466;5.478;2023-01-19T05:18:32;1.43;;;1.20;;
68365;SDS011;55283;51.466;5.478;2023-01-19T05:21:03;1.33;;;1.23;;
68365;SDS011;55283;51.466;5.478;2023-01-19T05:23:28;1.45;;;1.10;;
68365;SDS011;55283;51.466;5.478;2023-01-19T05:25:55;1.57;;;1.40;;
68365;SDS011;55283;51.466;5.478;2023-01-19T05:28:21;1.40;;;1.30;;
68365;SDS011;55283;51.466;5.478;2023-01-19T05:30:48;1.30;;;1.20;;
68365;SDS011;55283;51.466;5.478;2023-01-19T05:33:14;1.40;;;1.30;;
68365;SDS011;55283;51.466;5.478;2023-01-19T05:35:39;1.87;;;1.60;;
68365;SDS011;55283;51.466;5.478;2023-01-19T05:38:05;1.30;;;1.20;;
68365;SDS011;55283;51.466;5.478;2023-01-19T05:40:30;1.33;;;1.23;;
68365;SDS011;55283;51.466;5.478;2023-01-19T05:42:55;1.30;;;1.20;;
68365;SDS011;55283;51.466;5.478;2023-01-19T05:45:24;1.33;;;1.20;;
68365;SDS011;55283;51.466;5.478;2023-01-19T05:47:52;1.30;;;1.20;;
68365;SDS011;55283;51.466;5.478;2023-01-19T05:50:18;1.30;;;1.13;;
68365;SDS011;55283;51.466;5.478;2023-01-19T05:52:44;1.50;;;1.40;;
68365;SDS011;55283;51.466;5.478;2023-01-19T05:55:09;1.30;;;1.20;;
68365;SDS011;55283;51.466;5.478;2023-01-19T05:57:35;1.30;;;1.20;;
68365;SDS011;55283;51.466;5.478;2023-01-19T06:00:00;1.77;;;1.25;;
68365;SDS011;55283;51.466;5.478;2023-01-19T06:02:27;1.17;;;1.07;;
68365;SDS011;55283;51.466;5.478;2023-01-19T06:04:54;1.63;;;1.20;;
68365;SDS011;55283;51.466;5.478;2023-01-19T06:07:20;1.50;;;1.25;;
68365;SDS011;55283;51.466;5.478;2023-01-19T06:09:46;1.40;;;1.20;;
68365;SDS011;55283;51.466;5.478;2023-01-19T06:12:11;1.20;;;1.10;;
68365;SDS011;55283;51.466;5.478;2023-01-19T06:14:36;1.60;;;1.30;;
68365;SDS011;55283;51.466;5.478;2023-01-19T06:17:02;1.43;;;1.33;;
68365;SDS011;55283;51.466;5.478;2023-01-19T06:19:30;1.30;;;1.20;;
68365;SDS011;55283;51.466;5.478;2023-01-19T06:21:55;1.40;;;1.30;;
68365;SDS011;55283;51.466;5.478;2023-01-19T06:24:21;1.23;;;1.13;;
68365;SDS011;55283;51.466;5.478;2023-01-19T06:26:47;1.40;;;1.20;;
68365;SDS011;55283;51.466;5.478;2023-01-19T06:29:12;1.33;;;1.20;;
68365;SDS011;55283;51.466;5.478;2023-01-19T06:31:38;1.27;;;1.17;;
68365;SDS011;55283;51.466;5.478;2023-01-19T06:34:04;1.40;;;1.30;;
68365;SDS011;55283;51.466;5.478;2023-01-19T06:36:30;1.83;;;1.30;;
68365;SDS011;55283;51.466;5.478;2023-01-19T06:38:55;1.50;;;1.20;;
68365;SDS011;55283;51.466;5.478;2023-01-19T06:41:21;1.30;;;1.20;;
68365;SDS011;55283;51.466;5.478;2023-01-19T06:43:46;2.20;;;1.10;;
68365;SDS011;55283;51.466;5.478;2023-01-19T06:46:12;1.20;;;1.10;;
68365;SDS011;55283;51.466;5.478;2023-01-19T06:48:37;1.30;;;1.20;;
68365;SDS011;55283;51.466;5.478;2023-01-19T06:51:03;3.43;;;1.20;;
68365;SDS011;55283;51.466;5.478;2023-01-19T06:53:29;2.40;;;1.17;;
68365;SDS011;55283;51.466;5.478;2023-01-19T06:55:59;3.07;;;1.10;;
68365;SDS011;55283;51.466;5.478;2023-01-19T06:58:26;3.08;;;1.30;;
68365;SDS011;55283;51.466;5.478;2023-01-19T07:00:52;2.37;;;1.40;;
68365;SDS011;55283;51.466;5.478;2023-01-19T07:03:18;1.87;;;1.20;;
68365;SDS011;55283;51.466;5.478;2023-01-19T07:05:45;1.33;;;1.23;;
68365;SDS011;55283;51.466;5.478;2023-01-19T07:08:11;2.30;;;1.20;;
68365;SDS011;55283;51.466;5.478;2023-01-19T07:10:36;3.07;;;1.20;;
68365;SDS011;55283;51.466;5.478;2023-01-19T07:13:02;1.43;;;1.20;;
68365;SDS011;55283;51.466;5.478;2023-01-19T07:15:27;4.67;;;1.33;;
68365;SDS011;55283;51.466;5.478;2023-01-19T07:17:56;4.05;;;1.27;;
68365;SDS011;55283;51.466;5.478;2023-01-19T07:20:22;4.50;;;1.50;;
68365;SDS011;55283;51.466;5.478;2023-01-19T07:22:53;8.30;;;2.75;;
68365;SDS011;55283;51.466;5.478;2023-01-19T07:25:20;4.77;;;3.33;;
68365;SDS011;55283;51.466;5.478;2023-01-19T07:27:46;4.28;;;2.30;;
68365;SDS011;55283;51.466;5.478;2023-01-19T07:30:11;5.00;;;2.00;;
68365;SDS011;55283;51.466;5.478;2023-01-19T07:32:39;6.82;;;2.50;;
68365;SDS011;55283;51.466;5.478;2023-01-19T07:35:06;4.15;;;2.20;;
68365;SDS011;55283;51.466;5.478;2023-01-19T07:37:32;3.57;;;2.40;;
68365;SDS011;55283;51.466;5.478;2023-01-19T07:39:58;4.67;;;2.20;;
68365;SDS011;55283;51.466;5.478;2023-01-19T07:42:23;5.07;;;2.07;;
68365;SDS011;55283;51.466;5.478;2023-01-19T07:44:49;3.83;;;2.70;;
68365;SDS011;55283;51.466;5.478;2023-01-19T07:47:14;3.47;;;2.67;;
68365;SDS011;55283;51.466;5.478;2023-01-19T07:49:39;5.47;;;3.30;;
68365;SDS011;55283;51.466;5.478;2023-01-19T07:52:05;6.77;;;3.10;;
68365;SDS011;55283;51.466;5.478;2023-01-19T07:54:30;4.70;;;2.15;;
68365;SDS011;55283;51.466;5.478;2023-01-19T07:56:56;4.50;;;2.40;;
68365;SDS011;55283;51.466;5.478;2023-01-19T07:59:21;5.70;;;3.60;;
68365;SDS011;55283;51.466;5.478;2023-01-19T08:01:46;5.97;;;3.50;;
68365;SDS011;55283;51.466;5.478;2023-01-19T08:04:12;6.00;;;3.20;;
68365;SDS011;55283;51.466;5.478;2023-01-19T08:06:38;3.50;;;3.00;;
68365;SDS011;55283;51.466;5.478;2023-01-19T08:09:05;3.90;;;2.97;;
68365;SDS011;55283;51.466;5.478;2023-01-19T08:11:31;5.18;;;3.10;;
68365;SDS011;55283;51.466;5.478;2023-01-19T08:13:57;4.20;;;2.92;;
68365;SDS011;55283;51.466;5.478;2023-01-19T08:16:22;5.20;;;2.70;;
68365;SDS011;55283;51.466;5.478;2023-01-19T08:18:48;5.88;;;3.00;;
68365;SDS011;55283;51.466;5.478;2023-01-19T08:21:13;4.23;;;2.90;;
68365;SDS011;55283;51.466;5.478;2023-01-19T08:23:39;5.40;;;3.10;;
68365;SDS011;55283;51.466;5.478;2023-01-19T08:26:18;5.43;;;2.90;;
68365;SDS011;55283;51.466;5.478;2023-01-19T08:28:55;4.22;;;2.70;;
68365;SDS011;55283;51.466;5.478;2023-01-19T08:31:22;3.38;;;2.70;;
68365;SDS011;55283;51.466;5.478;2023-01-19T08:33:47;5.87;;;2.80;;
68365;SDS011;55283;51.466;5.478;2023-01-19T08:36:13;3.10;;;2.37;;
68365;SDS011;55283;51.466;5.478;2023-01-19T08:38:38;2.67;;;2.20;;
68365;SDS011;55283;51.466;5.478;2023-01-19T08:41:07;5.47;;;2.60;;
68365;SDS011;55283;51.466;5.478;2023-01-19T08:43:33;5.63;;;2.60;;
68365;SDS011;55283;51.466;5.478;2023-01-19T08:45:58;3.50;;;2.70;;
68365;SDS011;55283;51.466;5.478;2023-01-19T08:48:24;3.87;;;2.20;;
68365;SDS011;55283;51.466;5.478;2023-01-19T08:50:49;2.90;;;2.40;;
68365;SDS011;55283;51.466;5.478;2023-01-19T08:53:16;4.38;;;2.33;;
68365;SDS011;55283;51.466;5.478;2023-01-19T08:55:42;3.57;;;2.33;;
68365;SDS011;55283;51.466;5.478;2023-01-19T08:58:08;4.13;;;2.42;;
68365;SDS011;55283;51.466;5.478;2023-01-19T09:00:34;3.03;;;2.40;;
68365;SDS011;55283;51.466;5.478;2023-01-19T09:03:04;5.13;;;2.50;;
68365;SDS011;55283;51.466;5.478;2023-01-19T09:05:31;3.88;;;2.50;;
68365;SDS011;55283;51.466;5.478;2023-01-19T09:08:01;4.05;;;2.50;;
68365;SDS011;55283;51.466;5.478;2023-01-19T09:10:28;3.03;;;2.10;;
68365;SDS011;55283;51.466;5.478;2023-01-19T09:13:00;2.97;;;2.15;;
68365;SDS011;55283;51.466;5.478;2023-01-19T09:15:28;3.90;;;2.35;;
68365;SDS011;55283;51.466;5.478;2023-01-19T09:17:54;4.43;;;2.37;;
68365;SDS011;55283;51.466;5.478;2023-01-19T09:20:19;2.37;;;2.00;;
68365;SDS011;55283;51.466;5.478;2023-01-19T09:22:45;3.10;;;2.30;;
68365;SDS011;55283;51.466;5.478;2023-01-19T09:25:11;5.17;;;2.60;;
68365;SDS011;55283;51.466;5.478;2023-01-19T09:27:37;3.70;;;2.20;;
68365;SDS011;55283;51.466;5.478;2023-01-19T09:30:03;5.43;;;2.20;;
68365;SDS011;55283;51.466;5.478;2023-01-19T09:32:29;5.43;;;2.42;;
68365;SDS011;55283;51.466;5.478;2023-01-19T09:34:54;8.57;;;2.20;;
68365;SDS011;55283;51.466;5.478;2023-01-19T09:37:20;5.45;;;2.15;;
68365;SDS011;55283;51.466;5.478;2023-01-19T09:39:46;5.30;;;2.60;;
68365;SDS011;55283;51.466;5.478;2023-01-19T09:45:21;4.72;;;2.40;;
68365;SDS011;55283;51.466;5.478;2023-01-19T09:47:58;3.35;;;2.10;;
68365;SDS011;55283;51.466;5.478;2023-01-19T09:50:29;4.32;;;2.40;;
68365;SDS011;55283;51.466;5.478;2023-01-19T09:53:00;5.40;;;2.87;;
68365;SDS011;55283;51.466;5.478;2023-01-19T09:55:31;3.65;;;2.65;;
68365;SDS011;55283;51.466;5.478;2023-01-19T09:57:56;6.23;;;2.50;;
68365;SDS011;55283;51.466;5.478;2023-01-19T10:00:22;3.20;;;2.08;;
68365;SDS011;55283;51.466;5.478;2023-01-19T10:02:57;3.90;;;2.30;;
68365;SDS011;55283;51.466;5.478;2023-01-19T10:05:41;3.20;;;2.20;;
68365;SDS011;55283;51.466;5.478;2023-01-19T10:10:57;4.13;;;2.42;;
68365;SDS011;55283;51.466;5.478;2023-01-19T10:16:13;2.80;;;2.30;;
68365;SDS011;55283;51.466;5.478;2023-01-19T10:18:45;2.88;;;2.15;;
68365;SDS011;55283;51.466;5.478;2023-01-19T10:21:16;2.50;;;1.90;;
68365;SDS011;55283;51.466;5.478;2023-01-19T10:23:54;2.80;;;2.00;;
68365;SDS011;55283;51.466;5.478;2023-01-19T10:26:25;3.35;;;2.13;;
68365;SDS011;55283;51.466;5.478;2023-01-19T10:28:54;3.97;;;2.00;;
68365;SDS011;55283;51.466;5.478;2023-01-19T10:31:23;4.05;;;2.20;;
68365;SDS011;55283;51.466;5.478;2023-01-19T10:33:50;3.40;;;2.10;;
68365;SDS011;55283;51.466;5.478;2023-01-19T10:36:20;2.87;;;2.20;;
68365;SDS011;55283;51.466;5.478;2023-01-19T10:38:51;2.88;;;2.13;;
68365;SDS011;55283;51.466;5.478;2023-01-19T10:41:18;3.53;;;2.00;;
68365;SDS011;55283;51.466;5.478;2023-01-19T10:43:57;2.47;;;2.20;;
68365;SDS011;55283;51.466;5.478;2023-01-19T10:48:59;2.77;;;1.90;;
68365;SDS011;55283;51.466;5.478;2023-01-19T10:51:24;2.90;;;2.00;;
68365;SDS011;55283;51.466;5.478;2023-01-19T10:54:00;2.80;;;2.23;;
68365;SDS011;55283;51.466;5.478;2023-01-19T10:56:31;4.70;;;2.17;;
68365;SDS011;55283;51.466;5.478;2023-01-19T10:59:00;2.88;;;2.00;;
68365;SDS011;55283;51.466;5.478;2023-01-19T11:01:27;4.13;;;1.97;;
68365;SDS011;55283;51.466;5.478;2023-01-19T11:03:55;4.95;;;2.40;;
68365;SDS011;55283;51.466;5.478;2023-01-19T11:06:30;3.42;;;2.28;;
68365;SDS011;55283;51.466;5.478;2023-01-19T11:11:51;7.35;;;2.58;;
68365;SDS011;55283;51.466;5.478;2023-01-19T11:14:19;4.10;;;2.13;;
68365;SDS011;55283;51.466;5.478;2023-01-19T11:16:47;5.67;;;2.33;;
68365;SDS011;55283;51.466;5.478;2023-01-19T11:19:18;3.03;;;2.00;;
68365;SDS011;55283;51.466;5.478;2023-01-19T11:21:48;7.38;;;2.53;;
68365;SDS011;55283;51.466;5.478;2023-01-19T11:24:14;6.53;;;2.40;;
68365;SDS011;55283;51.466;5.478;2023-01-19T11:26:41;6.97;;;2.20;;
68365;SDS011;55283;51.466;5.478;2023-01-19T11:29:24;8.02;;;2.50;;
68365;SDS011;55283;51.466;5.478;2023-01-19T11:31:51;4.77;;;2.07;;
68365;SDS011;55283;51.466;5.478;2023-01-19T11:37:00;5.43;;;2.20;;
68365;SDS011;55283;51.466;5.478;2023-01-19T11:39:28;4.30;;;2.10;;
68365;SDS011;55283;51.466;5.478;2023-01-19T11:41:57;4.50;;;2.10;;
68365;SDS011;55283;51.466;5.478;2023-01-19T11:44:32;4.40;;;2.30;;
68365;SDS011;55283;51.466;5.478;2023-01-19T11:47:02;5.15;;;2.25;;
68365;SDS011;55283;51.466;5.478;2023-01-19T11:52:18;5.20;;;3.10;;
68365;SDS011;55283;51.466;5.478;2023-01-19T11:54:48;5.40;;;2.75;;
68365;SDS011;55283;51.466;5.478;2023-01-19T11:57:21;3.63;;;2.30;;
68365;SDS011;55283;51.466;5.478;2023-01-19T11:59:47;4.05;;;2.33;;
68365;SDS011;55283;51.466;5.478;2023-01-19T12:02:19;5.70;;;2.20;;
68365;SDS011;55283;51.466;5.478;2023-01-19T12:04:51;3.70;;;2.20;;
68365;SDS011;55283;51.466;5.478;2023-01-19T12:07:22;3.40;;;2.20;;
68365;SDS011;55283;51.466;5.478;2023-01-19T12:09:54;5.47;;;2.60;;
68365;SDS011;55283;51.466;5.478;2023-01-19T12:12:30;3.75;;;2.25;;
68365;SDS011;55283;51.466;5.478;2023-01-19T12:15:01;6.07;;;2.08;;
68365;SDS011;55283;51.466;5.478;2023-01-19T12:17:33;4.33;;;1.90;;
68365;SDS011;55283;51.466;5.478;2023-01-19T12:20:06;3.80;;;2.20;;
68365;SDS011;55283;51.466;5.478;2023-01-19T12:22:43;4.18;;;2.47;;
68365;SDS011;55283;51.466;5.478;2023-01-19T12:25:24;5.30;;;2.33;;
68365;SDS011;55283;51.466;5.478;2023-01-19T12:27:55;3.78;;;2.03;;
68365;SDS011;55283;51.466;5.478;2023-01-19T12:30:23;3.45;;;2.15;;
68365;SDS011;55283;51.466;5.478;2023-01-19T12:32:50;3.42;;;2.20;;
68365;SDS011;55283;51.466;5.478;2023-01-19T12:38:39;3.33;;;2.20;;
68365;SDS011;55283;51.466;5.478;2023-01-19T12:41:21;5.47;;;2.40;;
68365;SDS011;55283;51.466;5.478;2023-01-19T12:43:47;3.13;;;2.13;;
68365;SDS011;55283;51.466;5.478;2023-01-19T12:46:33;2.47;;;2.10;;
68365;SDS011;55283;51.466;5.478;2023-01-19T12:49:10;4.43;;;2.13;;
68365;SDS011;55283;51.466;5.478;2023-01-19T12:51:38;3.23;;;2.00;;
68365;SDS011;55283;51.466;5.478;2023-01-19T12:54:05;3.25;;;2.00;;
68365;SDS011;55283;51.466;5.478;2023-01-19T12:56:35;3.53;;;2.20;;
68365;SDS011;55283;51.466;5.478;2023-01-19T12:59:02;4.30;;;2.17;;
68365;SDS011;55283;51.466;5.478;2023-01-19T13:01:29;2.80;;;2.25;;
68365;SDS011;55283;51.466;5.478;2023-01-19T13:04:05;3.40;;;1.93;;
68365;SDS011;55283;51.466;5.478;2023-01-19T13:09:32;3.50;;;2.20;;
68365;SDS011;55283;51.466;5.478;2023-01-19T13:12:09;2.53;;;1.90;;
68365;SDS011;55283;51.466;5.478;2023-01-19T13:14:35;2.78;;;1.95;;
68365;SDS011;55283;51.466;5.478;2023-01-19T13:17:02;3.15;;;2.00;;
68365;SDS011;55283;51.466;5.478;2023-01-19T13:19:35;2.97;;;2.10;;
68365;SDS011;55283;51.466;5.478;2023-01-19T13:25:11;3.25;;;1.85;;
68365;SDS011;55283;51.466;5.478;2023-01-19T13:27:38;4.67;;;2.37;;
68365;SDS011;55283;51.466;5.478;2023-01-19T13:30:11;3.47;;;2.10;;
68365;SDS011;55283;51.466;5.478;2023-01-19T13:32:41;2.42;;;1.90;;
68365;SDS011;55283;51.466;5.478;2023-01-19T13:35:11;3.27;;;2.23;;
68365;SDS011;55283;51.466;5.478;2023-01-19T13:37:42;3.22;;;2.15;;
68365;SDS011;55283;51.466;5.478;2023-01-19T13:40:21;3.20;;;1.98;;
68365;SDS011;55283;51.466;5.478;2023-01-19T13:42:49;3.73;;;2.00;;
68365;SDS011;55283;51.466;5.478;2023-01-19T13:47:51;2.85;;;2.03;;
68365;SDS011;55283;51.466;5.478;2023-01-19T13:50:37;3.33;;;2.00;;
68365;SDS011;55283;51.466;5.478;2023-01-19T13:53:16;5.25;;;2.10;;
68365;SDS011;55283;51.466;5.478;2023-01-19T13:55:44;3.15;;;1.83;;
68365;SDS011;55283;51.466;5.478;2023-01-19T13:58:21;2.72;;;1.90;;
68365;SDS011;55283;51.466;5.478;2023-01-19T14:00:48;3.40;;;2.20;;
68365;SDS011;55283;51.466;5.478;2023-01-19T14:03:20;3.38;;;2.28;;
68365;SDS011;55283;51.466;5.478;2023-01-19T14:05:51;1.80;;;1.70;;
68365;SDS011;55283;51.466;5.478;2023-01-19T14:08:17;3.92;;;2.00;;
68365;SDS011;55283;51.466;5.478;2023-01-19T14:15:49;5.43;;;2.47;;
68365;SDS011;55283;51.466;5.478;2023-01-19T14:20:52;5.17;;;2.37;;
68365;SDS011;55283;51.466;5.478;2023-01-19T14:24:07;4.20;;;2.20;;
68365;SDS011;55283;51.466;5.478;2023-01-19T14:37:12;3.03;;;2.10;;
68365;SDS011;55283;51.466;5.478;2023-01-19T14:45:48;4.50;;;2.10;;
68365;SDS011;55283;51.466;5.478;2023-01-19T14:48:10;3.50;;;2.00;;
68365;SDS011;55283;51.466;5.478;2023-01-19T14:50:46;2.42;;;2.10;;
68365;SDS011;55283;51.466;5.478;2023-01-19T14:53:21;3.07;;;2.10;;
68365;SDS011;55283;51.466;5.478;2023-01-19T14:55:55;4.00;;;2.33;;
68365;SDS011;55283;51.466;5.478;2023-01-19T14:58:26;3.72;;;2.17;;
68365;SDS011;55283;51.466;5.478;2023-01-19T15:00:55;4.33;;;2.23;;
68365;SDS011;55283;51.466;5.478;2023-01-19T15:03:21;3.65;;;2.28;;
68365;SDS011;55283;51.466;5.478;2023-01-19T15:05:47;3.03;;;2.03;;
68365;SDS011;55283;51.466;5.478;2023-01-19T15:08:14;3.75;;;2.10;;
68365;SDS011;55283;51.466;5.478;2023-01-19T15:10:42;4.00;;;2.30;;
68365;SDS011;55283;51.466;5.478;2023-01-19T15:13:15;2.88;;;2.20;;
68365;SDS011;55283;51.466;5.478;2023-01-19T15:15:44;3.60;;;2.23;;
68365;SDS011;55283;51.466;5.478;2023-01-19T15:18:12;3.60;;;2.07;;
68365;SDS011;55283;51.466;5.478;2023-01-19T15:20:40;2.85;;;2.13;;
68365;SDS011;55283;51.466;5.478;2023-01-19T15:23:08;3.63;;;2.10;;
68365;SDS011;55283;51.466;5.478;2023-01-19T15:25:34;3.05;;;2.08;;
68365;SDS011;55283;51.466;5.478;2023-01-19T15:28:00;2.93;;;2.10;;
68365;SDS011;55283;51.466;5.478;2023-01-19T15:30:26;3.63;;;2.20;;
68365;SDS011;55283;51.466;5.478;2023-01-19T15:32:57;4.70;;;2.10;;
68365;SDS011;55283;51.466;5.478;2023-01-19T15:35:23;3.17;;;1.90;;
68365;SDS011;55283;51.466;5.478;2023-01-19T15:37:50;5.03;;;2.30;;
68365;SDS011;55283;51.466;5.478;2023-01-19T15:40:15;3.70;;;2.30;;
68365;SDS011;55283;51.466;5.478;2023-01-19T15:42:42;4.45;;;2.20;;
68365;SDS011;55283;51.466;5.478;2023-01-19T15:48:02;2.63;;;2.00;;
68365;SDS011;55283;51.466;5.478;2023-01-19T15:50:29;3.63;;;2.20;;
68365;SDS011;55283;51.466;5.478;2023-01-19T15:52:56;3.10;;;2.03;;
68365;SDS011;55283;51.466;5.478;2023-01-19T15:55:21;3.90;;;2.07;;
68365;SDS011;55283;51.466;5.478;2023-01-19T15:57:47;3.33;;;2.10;;
68365;SDS011;55283;51.466;5.478;2023-01-19T16:00:12;4.30;;;2.13;;
68365;SDS011;55283;51.466;5.478;2023-01-19T16:02:38;2.67;;;2.17;;
68365;SDS011;55283;51.466;5.478;2023-01-19T16:05:04;2.28;;;1.95;;
68365;SDS011;55283;51.466;5.478;2023-01-19T16:07:31;3.08;;;2.00;;
68365;SDS011;55283;51.466;5.478;2023-01-19T16:09:57;5.57;;;2.30;;
68365;SDS011;55283;51.466;5.478;2023-01-19T16:12:22;5.40;;;2.28;;
68365;SDS011;55283;51.466;5.478;2023-01-19T16:14:48;4.03;;;1.93;;